Time;durP1;ratioP1;P1;durP2;ratioP2;P2;SDS_P1;SDS_P2;PMS_P1;PMS_P2;Temp;Humidity;BMP_temperature;BMP_pressure;BME280_temperature;BME280_humidity;BME280_pressure;Samples;Min_cycle;Max_cycle;Signal;HPM_P1;HPM_P2
2021/10/25 00:00:44;;;;;;;6.60;3.50;;;5.10;99.90;;;;;;5028533;28;20073;-83
2021/10/25 00:03:10;;;;;;;6.90;2.97;;;5.10;99.90;;;;;;5013557;28;20042;-82
2021/10/25 00:05:36;;;;;;;4.50;3.53;;;5.10;99.90;;;;;;5022880;28;20046;-82
2021/10/25 00:08:02;;;;;;;3.60;2.95;;;5.00;99.90;;;;;;5017256;28;20058;-82
2021/10/25 00:10:27;;;;;;;;;;;5.00;99.90;;;;;;5014609;28;20050;-83
2021/10/25 00:12:53;;;;;;;5.13;4.50;;;5.00;99.90;;;;;;5024862;28;19923;-82
2021/10/25 00:15:19;;;;;;;2.70;2.50;;;5.00;99.90;;;;;;5023299;28;20073;-83
2021/10/25 00:17:45;;;;;;;5.85;3.40;;;4.90;99.90;;;;;;5016669;28;20037;-82
2021/10/25 00:20:13;;;;;;;5.28;3.95;;;5.00;99.90;;;;;;5017015;28;20159;-82
2021/10/25 00:22:40;;;;;;;6.43;4.43;;;5.00;99.90;;;;;;5031503;28;20048;-82
2021/10/25 00:25:07;;;;;;;3.00;1.73;;;5.00;99.90;;;;;;5023972;28;20073;-82
2021/10/25 00:27:33;;;;;;;5.65;3.70;;;4.90;99.90;;;;;;5030807;28;20056;-82
2021/10/25 00:29:59;;;;;;;5.75;3.15;;;4.90;99.90;;;;;;5030428;28;20049;-83
2021/10/25 00:32:24;;;;;;;2.78;2.58;;;5.00;99.90;;;;;;5028861;28;20408;-82
2021/10/25 00:34:50;;;;;;;4.53;4.03;;;5.00;99.90;;;;;;5020684;28;20114;-82
2021/10/25 00:37:16;;;;;;;6.10;4.45;;;5.00;99.90;;;;;;5004106;28;20053;-83
2021/10/25 00:39:42;;;;;;;5.85;2.95;;;5.00;99.90;;;;;;5026791;28;20046;-82
2021/10/25 00:42:08;;;;;;;6.38;3.47;;;4.90;99.90;;;;;;5014512;28;20045;-82
2021/10/25 00:44:34;;;;;;;2.30;2.10;;;4.90;99.90;;;;;;5023912;28;20411;-81
2021/10/25 00:47:00;;;;;;;4.57;3.33;;;4.90;99.90;;;;;;5026407;28;20077;-82
2021/10/25 00:49:26;;;;;;;4.03;3.60;;;5.00;99.90;;;;;;5022921;28;20099;-80
2021/10/25 00:51:54;;;;;;;3.67;3.33;;;5.00;99.90;;;;;;4994284;28;20037;-82
2021/10/25 00:54:20;;;;;;;5.15;3.05;;;5.00;99.90;;;;;;5021219;28;20042;-79
2021/10/25 00:56:46;;;;;;;5.47;4.50;;;5.10;99.90;;;;;;5022080;28;20049;-83
2021/10/25 00:59:13;;;;;;;3.75;3.33;;;5.10;99.90;;;;;;5023709;28;20045;-85
2021/10/25 01:01:40;;;;;;;4.97;4.18;;;5.10;99.90;;;;;;5023440;28;20049;-83
2021/10/25 01:04:06;;;;;;;11.52;4.13;;;5.10;99.90;;;;;;5012284;28;20514;-83
2021/10/25 01:06:32;;;;;;;5.32;3.42;;;5.10;99.90;;;;;;5026210;28;20093;-81
2021/10/25 01:08:58;;;;;;;5.55;4.45;;;5.10;99.90;;;;;;5028608;28;20125;-83
2021/10/25 01:11:25;;;;;;;5.45;2.72;;;5.00;99.90;;;;;;5030981;28;20057;-82
2021/10/25 01:13:52;;;;;;;4.95;4.07;;;5.00;99.90;;;;;;5023039;28;20066;-82
2021/10/25 01:16:18;;;;;;;7.57;4.05;;;5.00;99.90;;;;;;5028155;28;20057;-82
2021/10/25 01:18:45;;;;;;;6.25;3.80;;;5.20;99.90;;;;;;5028659;28;20645;-80
2021/10/25 01:21:12;;;;;;;4.65;4.25;;;5.10;99.90;;;;;;5032250;28;20045;-82
2021/10/25 01:23:38;;;;;;;3.58;3.15;;;5.20;99.90;;;;;;5029038;28;20132;-80
2021/10/25 01:26:04;;;;;;;5.05;3.83;;;5.00;99.90;;;;;;5053936;28;20076;-82
2021/10/25 01:28:30;;;;;;;6.65;4.38;;;5.00;99.90;;;;;;5025604;28;20085;-81
2021/10/25 01:30:55;;;;;;;6.55;4.03;;;5.00;99.90;;;;;;5022673;28;20057;-82
2021/10/25 01:33:21;;;;;;;3.67;2.88;;;5.10;99.90;;;;;;5035593;28;20506;-82
2021/10/25 01:35:47;;;;;;;6.20;4.10;;;5.00;99.90;;;;;;5001168;28;20029;-83
2021/10/25 01:38:13;;;;;;;3.80;3.38;;;5.00;99.90;;;;;;5030141;28;20045;-82
2021/10/25 01:40:39;;;;;;;6.05;3.45;;;4.90;99.90;;;;;;5022586;28;20037;-82
2021/10/25 01:43:05;;;;;;;7.45;2.25;;;4.90;99.90;;;;;;5015191;28;20092;-82
2021/10/25 01:45:31;;;;;;;2.75;2.45;;;5.00;99.90;;;;;;5021732;28;20053;-82
2021/10/25 01:47:57;;;;;;;4.40;2.63;;;4.80;99.90;;;;;;5027832;28;20049;-83
2021/10/25 01:50:26;;;;;;;6.78;4.40;;;4.90;99.90;;;;;;5023869;28;20043;-82
2021/10/25 01:52:52;;;;;;;3.90;3.40;;;4.80;99.90;;;;;;5025954;28;20083;-82
2021/10/25 01:55:18;;;;;;;3.58;3.28;;;4.80;99.90;;;;;;5021139;28;20088;-83
2021/10/25 01:57:44;;;;;;;;;;;4.80;99.90;;;;;;5011852;28;20044;-82
2021/10/25 02:00:10;;;;;;;4.82;3.42;;;4.90;99.90;;;;;;5054849;28;20333;-82
2021/10/25 02:02:35;;;;;;;8.90;4.03;;;4.80;99.90;;;;;;5015255;28;20512;-83
2021/10/25 02:05:02;;;;;;;5.28;4.13;;;4.80;99.90;;;;;;5017933;28;20134;-83
2021/10/25 02:07:28;;;;;;;4.03;3.55;;;4.90;99.90;;;;;;5028062;28;20384;-82
2021/10/25 02:09:55;;;;;;;18.92;4.55;;;4.90;99.90;;;;;;5022802;28;20111;-81
2021/10/25 02:12:20;;;;;;;;;;;4.90;99.90;;;;;;5060119;28;20048;-82
2021/10/25 02:14:46;;;;;;;4.10;3.60;;;5.10;99.90;;;;;;5026222;28;19921;-83
2021/10/25 02:17:13;;;;;;;5.90;3.25;;;5.00;99.90;;;;;;5037205;28;20044;-82
2021/10/25 02:19:38;;;;;;;;;;;5.10;99.90;;;;;;5049874;28;20415;-82
2021/10/25 02:22:05;;;;;;;6.60;4.38;;;5.10;99.90;;;;;;5041079;28;19917;-80
2021/10/25 02:24:31;;;;;;;7.00;3.35;;;5.20;99.90;;;;;;5033635;28;20054;-82
2021/10/25 02:26:57;;;;;;;4.85;4.35;;;5.20;99.90;;;;;;5017702;28;20045;-82
2021/10/25 02:29:23;;;;;;;7.00;3.83;;;5.40;99.90;;;;;;5035841;28;20053;-82
2021/10/25 02:31:49;;;;;;;8.55;5.63;;;5.30;99.90;;;;;;5044327;28;20498;-82
2021/10/25 02:34:16;;;;;;;6.05;4.05;;;5.30;99.90;;;;;;5023466;28;20077;-83
2021/10/25 02:36:42;;;;;;;10.13;6.82;;;5.30;99.90;;;;;;5029011;28;20061;-81
2021/10/25 02:39:08;;;;;;;7.68;4.80;;;5.30;99.90;;;;;;5021807;28;20530;-81
2021/10/25 02:41:33;;;;;;;7.68;4.03;;;5.30;99.90;;;;;;5025339;28;20144;-82
2021/10/25 02:43:59;;;;;;;4.20;3.80;;;5.30;99.90;;;;;;5047527;28;20117;-80
2021/10/25 02:46:25;;;;;;;7.25;3.67;;;5.40;99.90;;;;;;5017733;28;20034;-81
2021/10/25 02:48:50;;;;;;;8.35;2.90;;;5.40;99.90;;;;;;5026127;28;20033;-82
2021/10/25 02:51:16;;;;;;;3.50;2.78;;;5.40;99.90;;;;;;5018881;28;20050;-81
2021/10/25 02:53:42;;;;;;;12.82;5.10;;;5.40;99.90;;;;;;5018406;28;20033;-81
2021/10/25 02:56:08;;;;;;;5.78;3.80;;;5.40;99.90;;;;;;5029873;28;20089;-82
2021/10/25 02:58:35;;;;;;;5.75;4.85;;;5.40;99.90;;;;;;5007326;28;20049;-82
2021/10/25 03:01:01;;;;;;;4.57;3.75;;;5.40;99.90;;;;;;5021845;28;20084;-82
2021/10/25 03:03:26;;;;;;;8.00;3.35;;;5.40;99.90;;;;;;5031472;28;20064;-81
2021/10/25 03:05:52;;;;;;;4.20;3.72;;;5.40;99.90;;;;;;5030258;28;20049;-82
2021/10/25 03:08:18;;;;;;;8.00;3.15;;;5.40;99.90;;;;;;5012059;28;20052;-82
2021/10/25 03:10:44;;;;;;;5.03;3.20;;;5.40;99.90;;;;;;5034650;28;20045;-82
2021/10/25 03:13:11;;;;;;;6.43;2.75;;;5.40;99.90;;;;;;5027954;28;20426;-80
2021/10/25 03:15:37;;;;;;;7.85;5.05;;;5.50;99.90;;;;;;5025856;28;20088;-82
2021/10/25 03:18:02;;;;;;;10.00;3.53;;;5.50;99.90;;;;;;5062816;28;20084;-81
2021/10/25 03:20:28;;;;;;;11.27;6.45;;;5.40;99.90;;;;;;5026629;28;20045;-82
2021/10/25 03:22:54;;;;;;;7.88;4.05;;;5.40;99.90;;;;;;5034280;28;20056;-80
2021/10/25 03:25:20;;;;;;;5.38;4.40;;;5.60;99.90;;;;;;5027595;28;20060;-80
2021/10/25 03:27:47;;;;;;;8.95;5.15;;;5.50;99.90;;;;;;5029088;28;20131;-82
2021/10/25 03:30:14;;;;;;;8.63;4.28;;;5.70;99.90;;;;;;5024549;28;20066;-81
2021/10/25 03:32:41;;;;;;;9.80;4.20;;;5.50;99.90;;;;;;5029596;28;20053;-80
2021/10/25 03:35:08;;;;;;;8.20;6.25;;;5.50;99.90;;;;;;5029964;28;20038;-83
2021/10/25 03:37:36;;;;;;;6.82;4.68;;;5.50;99.90;;;;;;5025738;28;20045;-81
2021/10/25 03:40:03;;;;;;;9.93;5.95;;;5.50;99.90;;;;;;5029924;28;20502;-82
2021/10/25 03:42:32;;;;;;;7.15;5.28;;;5.50;99.90;;;;;;5016792;28;20119;-82
2021/10/25 03:48:34;;;;;;;6.65;4.47;;;5.50;99.90;;;;;;5015762;28;20140;-82
2021/10/25 03:50:31;;;;;;;3.78;3.08;;;5.50;99.90;;;;;;5018011;28;20045;-82
2021/10/25 04:28:14;;;;;;;3.25;2.83;;;5.70;99.90;;;;;;5013111;28;20064;-81
2021/10/25 04:30:40;;;;;;;5.28;4.78;;;5.70;99.90;;;;;;5028308;28;20068;-82
2021/10/25 04:33:06;;;;;;;;;;;5.80;99.90;;;;;;5024720;28;20057;-80
2021/10/25 04:35:32;;;;;;;4.20;2.92;;;5.90;99.90;;;;;;5020469;28;20290;-82
2021/10/25 04:37:58;;;;;;;5.70;3.47;;;5.90;99.90;;;;;;5048988;28;20045;-81
2021/10/25 04:40:25;;;;;;;8.13;5.25;;;6.00;99.90;;;;;;5026386;28;20096;-81
2021/10/25 04:42:51;;;;;;;4.65;3.35;;;6.00;99.90;;;;;;5023972;28;20371;-82
2021/10/25 04:45:19;;;;;;;18.02;5.97;;;6.10;99.90;;;;;;5030225;28;20060;-80
2021/10/25 04:47:45;;;;;;;3.53;2.83;;;6.10;99.90;;;;;;5022127;28;20081;-81
2021/10/25 04:50:11;;;;;;;7.10;3.67;;;6.20;99.90;;;;;;5026873;28;20136;-82
2021/10/25 04:52:37;;;;;;;5.78;3.83;;;6.20;99.90;;;;;;5020889;28;20132;-81
2021/10/25 04:55:03;;;;;;;;;;;6.30;99.90;;;;;;5016925;28;20040;-81
2021/10/25 04:57:29;;;;;;;9.65;5.82;;;6.40;99.90;;;;;;5030391;28;20295;-81
2021/10/25 04:59:55;;;;;;;6.15;4.88;;;6.40;99.90;;;;;;5029987;28;20052;-80
2021/10/25 05:02:21;;;;;;;4.70;3.45;;;6.50;99.90;;;;;;5023658;28;20041;-80
2021/10/25 05:04:47;;;;;;;7.75;4.25;;;6.50;99.90;;;;;;5020083;28;20038;-82
2021/10/25 05:07:12;;;;;;;9.55;3.53;;;6.50;99.90;;;;;;5027136;28;20590;-82
2021/10/25 05:09:41;;;;;;;7.72;5.40;;;6.60;99.90;;;;;;5012342;28;20052;-82
2021/10/25 05:12:13;;;;;;;7.03;4.57;;;6.60;99.90;;;;;;5027849;28;20103;-81
2021/10/25 05:14:40;;;;;;;5.50;3.38;;;6.70;99.90;;;;;;5028753;28;20046;-83
2021/10/25 05:17:07;;;;;;;5.50;3.45;;;6.70;99.90;;;;;;5050611;28;20045;-81
2021/10/25 05:19:32;;;;;;;4.28;3.38;;;6.70;99.90;;;;;;5027545;28;20042;-83
2021/10/25 05:21:58;;;;;;;5.28;3.70;;;6.80;99.90;;;;;;5032448;28;20128;-83
2021/10/25 05:24:24;;;;;;;8.20;4.22;;;6.80;99.90;;;;;;5045039;28;20050;-83
2021/10/25 05:26:49;;;;;;;7.80;4.38;;;6.90;99.90;;;;;;5044506;28;20053;-82
2021/10/25 05:29:15;;;;;;;5.38;4.55;;;6.90;99.90;;;;;;5022319;28;20042;-81
2021/10/25 05:31:41;;;;;;;5.55;3.17;;;6.90;99.90;;;;;;5054753;28;20115;-82
2021/10/25 05:34:07;;;;;;;9.63;5.05;;;7.20;99.90;;;;;;5001260;28;20426;-82
2021/10/25 05:36:33;;;;;;;3.90;2.92;;;7.00;99.90;;;;;;5022578;28;20041;-82
2021/10/25 05:38:58;;;;;;;7.28;3.72;;;7.00;99.90;;;;;;5026920;28;20069;-82
2021/10/25 05:41:26;;;;;;;7.95;4.40;;;7.20;99.90;;;;;;5017436;28;20037;-83
2021/10/25 05:43:52;;;;;;;4.93;3.67;;;7.10;99.90;;;;;;5025136;28;20611;-82
2021/10/25 05:46:18;;;;;;;11.07;4.85;;;7.20;99.90;;;;;;5002078;28;20125;-80
2021/10/25 05:48:44;;;;;;;6.32;3.92;;;7.20;99.90;;;;;;5024077;28;20418;-81
2021/10/25 05:51:11;;;;;;;;;;;7.30;99.90;;;;;;5020763;28;20042;-83
2021/10/25 05:53:36;;;;;;;4.40;3.42;;;7.20;99.90;;;;;;5023458;28;19918;-83
2021/10/25 05:56:02;;;;;;;3.17;2.13;;;7.20;99.90;;;;;;5041394;28;20038;-82
2021/10/25 05:58:29;;;;;;;4.35;3.95;;;7.20;99.90;;;;;;5027308;28;20042;-83
2021/10/25 06:00:57;;;;;;;7.93;6.75;;;7.30;99.90;;;;;;5026618;28;20044;-84
2021/10/25 06:03:26;;;;;;;4.85;3.92;;;7.20;99.90;;;;;;5027364;28;20045;-82
2021/10/25 06:05:52;;;;;;;5.97;3.55;;;7.20;99.90;;;;;;5033298;28;20052;-81
2021/10/25 06:08:18;;;;;;;;;;;7.20;99.90;;;;;;5038264;28;20438;-84
2021/10/25 06:10:44;;;;;;;7.78;4.82;;;7.20;99.90;;;;;;5025628;28;19968;-80
2021/10/25 06:13:19;;;;;;;8.90;4.10;;;7.20;99.90;;;;;;5021556;28;20037;-82
2021/10/25 06:15:54;;;;;;;4.72;3.40;;;7.20;99.90;;;;;;5049560;28;20446;-80
2021/10/25 06:18:20;;;;;;;6.28;4.22;;;7.20;99.90;;;;;;5026536;28;20069;-81
2021/10/25 06:20:46;;;;;;;2.75;2.53;;;7.20;99.90;;;;;;5022705;28;20080;-80
2021/10/25 06:23:14;;;;;;;5.65;3.95;;;7.20;99.90;;;;;;5020730;28;20048;-78
2021/10/25 06:25:41;;;;;;;5.53;2.65;;;7.20;99.90;;;;;;5031189;28;20085;-81
2021/10/25 06:28:07;;;;;;;6.50;4.18;;;7.20;99.90;;;;;;5024944;28;20100;-77
2021/10/25 06:30:35;;;;;;;5.40;4.15;;;7.20;99.90;;;;;;5054891;28;20065;-78
2021/10/25 06:33:05;;;;;;;11.38;5.78;;;7.20;99.90;;;;;;5046922;28;20041;-77
2021/10/25 06:35:32;;;;;;;18.48;4.50;;;7.20;99.90;;;;;;5043867;28;20124;-77
2021/10/25 06:38:03;;;;;;;5.47;4.65;;;7.30;99.90;;;;;;5030874;28;20053;-80
2021/10/25 06:40:29;;;;;;;6.30;3.80;;;7.30;99.90;;;;;;5023810;28;20078;-79
2021/10/25 06:42:56;;;;;;;10.35;5.22;;;7.30;99.90;;;;;;5008164;28;20084;-77
2021/10/25 06:45:22;;;;;;;6.60;5.90;;;7.30;99.90;;;;;;5022696;28;20541;-79
2021/10/25 06:47:50;;;;;;;5.63;3.55;;;7.30;99.90;;;;;;5025630;28;20076;-79
2021/10/25 06:50:18;;;;;;;6.55;4.00;;;7.30;99.90;;;;;;5028501;28;20045;-79
2021/10/25 06:52:44;;;;;;;7.22;4.03;;;7.30;99.90;;;;;;5018769;28;20042;-79
2021/10/25 06:55:10;;;;;;;;;;;7.30;99.90;;;;;;5018279;28;20077;-78
2021/10/25 06:57:36;;;;;;;6.65;4.65;;;7.30;99.90;;;;;;5029710;28;20003;-81
2021/10/25 07:00:06;;;;;;;5.43;4.38;;;7.40;99.90;;;;;;5029383;28;20121;-78
2021/10/25 07:02:32;;;;;;;9.25;4.88;;;7.40;99.90;;;;;;5033651;28;20041;-78
2021/10/25 07:04:58;;;;;;;6.50;3.40;;;7.40;99.90;;;;;;5017471;28;20445;-79
2021/10/25 07:07:26;;;;;;;6.63;4.47;;;7.50;99.90;;;;;;5021862;28;20049;-80
2021/10/25 07:09:55;;;;;;;8.40;4.55;;;7.50;99.90;;;;;;5014856;28;20046;-78
2021/10/25 07:12:21;;;;;;;8.68;4.03;;;7.60;99.90;;;;;;5042347;28;20119;-81
2021/10/25 07:14:51;;;;;;;10.23;5.05;;;7.60;99.90;;;;;;5034764;28;20099;-79
2021/10/25 07:20:13;;;;;;;6.72;4.63;;;7.70;99.90;;;;;;5054103;28;20053;-80
2021/10/25 08:09:09;;;;;;;10.38;6.30;;;8.80;99.90;;;;;;5047306;28;20049;-78
2021/10/25 08:11:44;;;;;;;6.72;4.47;;;8.60;99.90;;;;;;5025890;28;20108;-81
2021/10/25 08:14:13;;;;;;;9.05;5.38;;;8.70;99.90;;;;;;5022298;28;20503;-82
2021/10/25 08:16:49;;;;;;;11.77;6.22;;;9.10;99.90;;;;;;5046804;28;20041;-81
2021/10/25 08:19:29;;;;;;;7.75;4.80;;;8.80;99.90;;;;;;5038484;28;20738;-83
2021/10/25 08:22:09;;;;;;;7.50;5.80;;;8.80;99.90;;;;;;5017000;28;20048;-83
2021/10/25 08:24:38;;;;;;;7.45;4.05;;;8.90;99.90;;;;;;5024680;28;20046;-81
2021/10/25 08:27:08;;;;;;;4.10;3.00;;;8.90;99.90;;;;;;5018176;28;20054;-81
2021/10/25 08:29:34;;;;;;;11.13;5.45;;;9.00;99.90;;;;;;5016604;28;20087;-81
2021/10/25 08:34:38;;;;;;;13.15;4.72;;;9.00;99.90;;;;;;5004771;28;20045;-80
2021/10/25 08:39:52;;;;;;;5.30;4.68;;;9.10;99.90;;;;;;5025536;28;20045;-83
2021/10/25 08:42:26;;;;;;;8.18;5.38;;;9.00;99.90;;;;;;5021184;28;20033;-79
2021/10/25 08:44:58;;;;;;;8.48;3.65;;;9.10;99.90;;;;;;5031404;28;20048;-81
2021/10/25 08:47:28;;;;;;;9.38;4.75;;;9.10;99.90;;;;;;5008859;28;20391;-80
2021/10/25 08:49:55;;;;;;;14.13;5.82;;;9.10;99.90;;;;;;5026193;28;20053;-80
2021/10/25 08:52:23;;;;;;;6.25;3.78;;;9.20;99.90;;;;;;5038513;28;20049;-81
2021/10/25 08:54:50;;;;;;;5.53;4.05;;;9.20;99.90;;;;;;4990620;28;20081;-80
2021/10/25 08:57:24;;;;;;;7.78;4.25;;;9.20;99.90;;;;;;5006880;28;20076;-82
2021/10/25 09:00:11;;;;;;;3.58;2.95;;;9.20;99.90;;;;;;5039252;28;20045;-77
2021/10/25 09:02:39;;;;;;;5.93;4.55;;;9.20;99.90;;;;;;5014071;28;20048;-79
2021/10/25 09:05:11;;;;;;;6.05;4.43;;;9.20;99.90;;;;;;5001808;28;20045;-82
2021/10/25 09:07:51;;;;;;;6.57;5.03;;;9.30;99.90;;;;;;5015878;28;20042;-80
2021/10/25 09:10:30;;;;;;;8.85;4.35;;;9.30;99.90;;;;;;5021287;28;20095;-77
2021/10/25 09:13:03;;;;;;;7.53;3.47;;;9.30;99.90;;;;;;5054370;28;20487;-77
2021/10/25 09:15:38;;;;;;;6.65;4.90;;;9.40;99.90;;;;;;5054035;28;20041;-79
2021/10/25 09:18:16;;;;;;;4.20;3.80;;;9.40;99.90;;;;;;5024187;28;20069;-78
2021/10/25 09:20:53;;;;;;;5.57;4.13;;;9.50;99.90;;;;;;5026971;28;20078;-80
2021/10/25 09:23:25;;;;;;;6.13;4.28;;;9.60;99.90;;;;;;5039000;28;20056;-80
2021/10/25 09:25:57;;;;;;;10.65;5.03;;;9.60;99.90;;;;;;5047283;28;20107;-76
2021/10/25 09:28:30;;;;;;;6.97;5.10;;;9.70;99.90;;;;;;5047637;28;20499;-81
2021/10/25 09:31:01;;;;;;;6.80;4.78;;;9.80;99.90;;;;;;5022833;28;20054;-80
2021/10/25 09:33:42;;;;;;;7.00;4.65;;;9.80;99.90;;;;;;5029122;28;20132;-79
2021/10/25 09:36:16;;;;;;;4.13;3.58;;;9.80;99.90;;;;;;5048083;28;20124;-79
2021/10/25 09:39:07;;;;;;;6.88;4.43;;;9.70;99.90;;;;;;5008503;28;20042;-79
2021/10/25 09:49:58;;;;;;;7.60;4.00;;;9.80;99.90;;;;;;5048673;28;20038;-77
2021/10/25 09:52:43;;;;;;;5.63;3.72;;;9.90;99.90;;;;;;5021650;28;20045;-80
2021/10/25 09:55:13;;;;;;;6.55;5.18;;;9.90;99.90;;;;;;5033323;28;20049;-83
2021/10/25 10:00:13;;;;;;;6.35;4.88;;;10.00;99.90;;;;;;5015648;28;20463;-80
2021/10/25 10:02:40;;;;;;;7.82;5.68;;;10.00;99.90;;;;;;5018154;28;20575;-79
2021/10/25 10:05:10;;;;;;;7.13;4.18;;;10.00;99.90;;;;;;5027241;28;20054;-77
2021/10/25 10:07:37;;;;;;;5.28;4.22;;;10.00;99.90;;;;;;5017917;28;20033;-78
2021/10/25 10:10:05;;;;;;;10.18;5.22;;;10.00;99.90;;;;;;5051201;28;20069;-80
2021/10/25 10:12:31;;;;;;;6.32;2.88;;;10.00;99.90;;;;;;5020564;28;20523;-78
2021/10/25 10:14:59;;;;;;;3.45;2.83;;;10.00;99.90;;;;;;5026203;28;20133;-79
2021/10/25 10:17:40;;;;;;;3.50;3.20;;;10.00;99.90;;;;;;5020526;28;20470;-78
2021/10/25 10:20:14;;;;;;;3.13;2.83;;;10.00;99.90;;;;;;5021495;28;20052;-81
2021/10/25 10:22:45;;;;;;;4.60;3.75;;;10.00;99.90;;;;;;5023790;28;20052;-84
2021/10/25 10:25:11;;;;;;;5.32;3.35;;;10.00;99.90;;;;;;5016518;28;20368;-79
2021/10/25 10:27:37;;;;;;;;;;;10.00;99.90;;;;;;5006172;28;20120;-77
2021/10/25 10:30:10;;;;;;;3.78;3.28;;;10.00;99.90;;;;;;5016476;28;20013;-78
2021/10/25 10:32:36;;;;;;;4.13;3.17;;;10.10;99.90;;;;;;5032154;28;20054;-80
2021/10/25 10:35:07;;;;;;;;;;;10.10;99.90;;;;;;5007161;28;20038;-78
2021/10/25 10:37:39;;;;;;;4.78;3.28;;;10.20;99.90;;;;;;5031584;28;19964;-80
2021/10/25 10:40:09;;;;;;;6.05;2.95;;;10.20;99.90;;;;;;5024190;28;20122;-79
2021/10/25 10:42:36;;;;;;;3.42;3.13;;;10.30;99.90;;;;;;5029049;28;20045;-77
2021/10/25 10:45:10;;;;;;;4.95;3.13;;;10.40;99.90;;;;;;5046506;28;20080;-77
2021/10/25 10:47:50;;;;;;;6.20;5.28;;;10.40;99.90;;;;;;5045831;28;20128;-78
2021/10/25 10:50:20;;;;;;;6.45;3.83;;;10.30;99.90;;;;;;5025078;28;20364;-82
2021/10/25 10:52:49;;;;;;;6.13;3.97;;;10.30;99.90;;;;;;5027342;28;20029;-79
2021/10/25 10:55:18;;;;;;;3.72;2.85;;;10.40;99.90;;;;;;5047169;28;20466;-78
2021/10/25 11:00:35;;;;;;;4.65;4.22;;;10.30;99.90;;;;;;5027477;28;20049;-78
2021/10/25 11:03:12;;;;;;;5.95;3.88;;;10.30;99.90;;;;;;5017623;28;20116;-77
2021/10/25 11:05:39;;;;;;;6.63;3.28;;;10.30;99.90;;;;;;5021939;28;20044;-80
2021/10/25 11:08:17;;;;;;;3.55;3.25;;;10.20;99.90;;;;;;5058579;28;20410;-79
2021/10/25 11:10:46;;;;;;;4.50;3.10;;;10.30;99.90;;;;;;5024108;28;20398;-81
2021/10/25 11:13:21;;;;;;;6.13;4.60;;;10.30;99.90;;;;;;5032504;28;20080;-78
2021/10/25 11:16:13;;;;;;;4.72;4.03;;;10.30;99.90;;;;;;5028721;28;20061;-78
2021/10/25 11:18:45;;;;;;;4.88;2.97;;;10.30;99.90;;;;;;5038268;28;20578;-81
2021/10/25 11:21:23;;;;;;;6.55;3.63;;;10.30;99.90;;;;;;5024851;28;20372;-80
2021/10/25 11:24:15;;;;;;;4.40;2.92;;;10.30;99.90;;;;;;5035206;28;20069;-79
2021/10/25 11:26:47;;;;;;;3.30;3.03;;;10.40;99.90;;;;;;5024141;28;20057;-80
2021/10/25 11:29:14;;;;;;;7.47;3.63;;;10.40;99.90;;;;;;5016457;28;20049;-79
2021/10/25 11:31:47;;;;;;;5.07;3.42;;;10.40;99.90;;;;;;5021454;28;20509;-79
2021/10/25 11:34:24;;;;;;;2.97;2.53;;;10.40;99.90;;;;;;5046200;28;20432;-80
2021/10/25 11:37:03;;;;;;;4.60;3.15;;;10.50;99.90;;;;;;5026678;28;20133;-78
2021/10/25 11:42:31;;;;;;;4.13;2.28;;;10.60;99.90;;;;;;5024070;28;20101;-79
2021/10/25 11:45:13;;;;;;;5.45;3.75;;;10.70;99.90;;;;;;5029946;28;20085;-77
2021/10/25 11:47:42;;;;;;;3.88;2.90;;;10.70;99.90;;;;;;5015930;28;20111;-82
2021/10/25 11:50:24;;;;;;;3.28;2.80;;;10.80;99.90;;;;;;5014075;28;20488;-78
2021/10/25 11:52:55;;;;;;;3.80;2.80;;;11.00;99.90;;;;;;5025975;28;20041;-77
2021/10/25 11:55:25;;;;;;;4.22;3.03;;;11.20;99.90;;;;;;5032136;28;20037;-79
2021/10/25 11:58:09;;;;;;;5.45;3.22;;;11.30;99.90;;;;;;5031161;28;20065;-78
2021/10/25 12:00:43;;;;;;;4.50;3.22;;;11.30;99.90;;;;;;5025677;28;20052;-81
2021/10/25 12:03:13;;;;;;;3.90;3.25;;;11.30;99.90;;;;;;5023402;28;20041;-79
2021/10/25 12:05:41;;;;;;;3.22;2.92;;;11.30;99.90;;;;;;5012987;28;20088;-82
2021/10/25 12:08:11;;;;;;;3.97;3.58;;;11.30;99.90;;;;;;5017089;28;20117;-80
2021/10/25 12:10:39;;;;;;;4.78;3.30;;;11.40;99.90;;;;;;5021668;28;20049;-81
2021/10/25 12:13:07;;;;;;;3.95;3.20;;;11.40;99.90;;;;;;5025759;28;20041;-80
2021/10/25 12:15:35;;;;;;;6.68;4.32;;;11.50;99.90;;;;;;5025278;28;20049;-80
2021/10/25 12:18:04;;;;;;;7.55;3.70;;;11.60;99.90;;;;;;5051476;28;20049;-81
2021/10/25 12:20:34;;;;;;;3.95;2.83;;;11.60;99.90;;;;;;5028667;28;20563;-81
2021/10/25 12:23:12;;;;;;;4.50;3.03;;;11.60;99.90;;;;;;5027689;28;20058;-79
2021/10/25 12:25:38;;;;;;;4.30;3.45;;;11.70;99.90;;;;;;5024206;28;20048;-79
2021/10/25 12:28:24;;;;;;;3.95;2.70;;;11.60;99.90;;;;;;5027693;28;20395;-83
2021/10/25 12:31:03;;;;;;;4.32;2.70;;;11.50;99.90;;;;;;5019200;28;20046;-82
2021/10/25 12:33:29;;;;;;;4.70;2.33;;;11.50;99.90;;;;;;5022742;28;20129;-79
2021/10/25 12:35:56;;;;;;;6.35;3.13;;;11.50;99.90;;;;;;5046017;28;20447;-82
2021/10/25 12:38:23;;;;;;;6.68;3.03;;;11.40;99.90;;;;;;5028444;28;20069;-79
2021/10/25 12:40:58;;;;;;;5.65;3.72;;;11.40;99.90;;;;;;5009360;28;20517;-80
2021/10/25 12:43:24;;;;;;;3.37;2.80;;;11.30;99.90;;;;;;5027982;28;20049;-80
2021/10/25 12:46:02;;;;;;;3.47;2.70;;;11.30;99.90;;;;;;5007453;28;20046;-79
2021/10/25 12:48:27;;;;;;;5.00;3.50;;;11.50;99.90;;;;;;5022876;28;20514;-78
2021/10/25 12:51:03;;;;;;;5.10;3.83;;;11.60;99.90;;;;;;5017537;28;20038;-80
2021/10/25 12:53:33;;;;;;;4.32;3.38;;;11.60;99.90;;;;;;5026137;28;20124;-80
2021/10/25 12:56:00;;;;;;;5.68;4.07;;;11.60;99.90;;;;;;5038560;28;20041;-80
2021/10/25 12:58:26;;;;;;;7.53;4.50;;;11.50;99.90;;;;;;5023376;28;20442;-80
2021/10/25 13:00:52;;;;;;;4.93;3.38;;;11.40;99.90;;;;;;5013864;28;20049;-81
2021/10/25 13:03:19;;;;;;;6.35;3.78;;;11.30;99.90;;;;;;5055812;28;20110;-83
2021/10/25 13:05:50;;;;;;;8.45;4.78;;;11.40;99.90;;;;;;5025805;28;20525;-79
2021/10/25 13:08:23;;;;;;;6.95;3.90;;;11.50;99.90;;;;;;5046779;28;20042;-81
2021/10/25 13:10:49;;;;;;;4.97;4.18;;;11.50;99.90;;;;;;5030702;28;20133;-81
2021/10/25 13:13:16;;;;;;;;;;;11.50;99.90;;;;;;5025817;28;20054;-82
2021/10/25 13:15:44;;;;;;;8.23;4.78;;;11.40;99.90;;;;;;5027270;28;19948;-83
2021/10/25 13:18:11;;;;;;;5.22;4.47;;;11.40;99.90;;;;;;5019196;28;20507;-79
2021/10/25 13:20:42;;;;;;;7.10;4.03;;;11.50;99.90;;;;;;5015660;28;20110;-79
2021/10/25 13:23:11;;;;;;;6.20;4.00;;;11.50;99.90;;;;;;5043528;28;20069;-78
2021/10/25 13:25:38;;;;;;;8.20;6.07;;;11.50;99.90;;;;;;5009793;28;20053;-79
2021/10/25 13:28:06;;;;;;;6.80;5.07;;;11.50;99.90;;;;;;5056978;28;20081;-79
2021/10/25 13:30:33;;;;;;;6.18;4.93;;;11.50;99.90;;;;;;5047430;28;20558;-80
2021/10/25 13:33:00;;;;;;;10.25;5.53;;;11.50;99.90;;;;;;5015579;28;20053;-82
2021/10/25 13:35:26;;;;;;;6.65;4.18;;;11.50;99.90;;;;;;5004715;28;20483;-81
2021/10/25 13:37:54;;;;;;;6.68;4.18;;;11.50;99.90;;;;;;5001878;28;20205;-83
2021/10/25 13:40:24;;;;;;;10.10;4.43;;;11.50;99.90;;;;;;5051116;28;20042;-82
2021/10/25 13:42:51;;;;;;;8.40;4.97;;;11.50;99.90;;;;;;5043794;28;20054;-82
2021/10/25 13:45:17;;;;;;;11.00;5.07;;;11.50;99.90;;;;;;5029521;28;20045;-81
2021/10/25 13:47:42;;;;;;;;;;;11.50;99.90;;;;;;5023581;28;20049;-82
2021/10/25 13:50:08;;;;;;;9.57;4.78;;;11.50;99.90;;;;;;5012256;28;19921;-80
2021/10/25 13:52:36;;;;;;;8.85;4.82;;;11.50;99.90;;;;;;5019406;28;20386;-80
2021/10/25 13:55:06;;;;;;;8.18;4.68;;;11.50;99.90;;;;;;5014684;28;20112;-79
2021/10/25 13:57:37;;;;;;;5.72;4.40;;;11.50;99.90;;;;;;5031737;28;20056;-78
2021/10/25 14:00:09;;;;;;;8.30;4.85;;;11.60;99.90;;;;;;5033688;28;20048;-77
2021/10/25 14:02:36;;;;;;;6.88;4.55;;;11.60;99.90;;;;;;5007701;28;20049;-78
2021/10/25 14:05:03;;;;;;;8.60;3.67;;;11.80;99.90;;;;;;5014198;28;20386;-82
2021/10/25 14:07:34;;;;;;;8.18;4.65;;;11.80;99.90;;;;;;5013816;28;20060;-81
2021/10/25 14:10:06;;;;;;;4.78;3.70;;;11.70;99.90;;;;;;5010147;28;20081;-81
2021/10/25 14:12:33;;;;;;;10.52;5.57;;;11.70;99.90;;;;;;5036253;28;20419;-81
2021/10/25 14:15:17;;;;;;;10.45;4.65;;;11.30;99.90;;;;;;5044524;28;20045;-81
2021/10/25 14:17:45;;;;;;;11.52;5.32;;;11.60;99.90;;;;;;5061951;28;20075;-82
2021/10/25 14:20:12;;;;;;;7.95;5.80;;;11.50;99.90;;;;;;5020919;28;20037;-81
2021/10/25 14:22:38;;;;;;;8.18;5.88;;;11.50;99.90;;;;;;5026543;28;20132;-83
2021/10/25 14:25:05;;;;;;;12.50;4.65;;;11.50;99.90;;;;;;5027748;28;20089;-82
2021/10/25 14:27:33;;;;;;;7.10;4.40;;;11.40;99.90;;;;;;5024631;28;20411;-82
2021/10/25 14:29:59;;;;;;;8.60;5.38;;;11.40;99.90;;;;;;5044915;28;20179;-82
2021/10/25 14:32:26;;;;;;;11.35;5.00;;;11.40;99.90;;;;;;5023405;28;20145;-82
2021/10/25 14:34:51;;;;;;;6.03;4.07;;;11.40;99.90;;;;;;5013905;28;20108;-82
2021/10/25 14:37:17;;;;;;;7.88;5.68;;;11.30;99.90;;;;;;5008090;28;20039;-81
2021/10/25 14:39:45;;;;;;;9.75;5.32;;;11.30;99.90;;;;;;5041734;28;20480;-83
2021/10/25 14:42:19;;;;;;;12.73;5.50;;;11.30;99.90;;;;;;5046142;28;20042;-84
2021/10/25 14:47:25;;;;;;;6.75;5.07;;;11.20;99.90;;;;;;5049980;28;20049;-84
2021/10/25 14:57:37;;;;;;;5.25;4.07;;;11.10;99.90;;;;;;5032566;28;20460;-82
2021/10/25 15:00:05;;;;;;;8.77;6.43;;;11.10;99.90;;;;;;5008407;28;20135;-84
2021/10/25 15:02:31;;;;;;;9.38;5.82;;;11.10;99.90;;;;;;5060461;28;20042;-82